Timeline UpdatesTrip UpdatesNews PostsPvt PostsTravel TipsAdmin PostsConv PostsFollowed PostsChat RequestsBlog PostsPNR Posts

Disclaimer
Search
 
 
Sat Jul 26, 2014 10:37:42 ISTHomeTrainsΣChainsAtlasPNRForumGalleryNewsFAQTripsMembersLoginFeedback
No Recent News for this Train
Other Trains in the News **new
Latest...
.
Sat Sep 10, 2011 (03:37PM)
⇐ Return Journey: Train# 11464

11463/Somnath-Jabalpur Express

Jul 02 2013 (6:48PM)
Change Departure Station:
Change Arrival Station:
Post a Train Travel TipPost a Train Travel Tip **new
Post a Comment/Question/Picture/VideoPost a Comment/Question/Picture/Video
Pantry/Catering
✕ NO Pantry Car
✓ Catering Avbl
There is NO Pantry.; CATERING AVAILABLE. Food served at Jetalsar.
Loco/Rake Reversals
BRC/Vadodara Junction (7); ET/Itarsi Junction (7);
RSA - Rake Sharing
Has RSA with 11465/11466 Somnath-Jabalpur Express.
Rake/Coach Composition
LOCO(Diesel)-SLR/LD-GEN-GEN-S11-S10-S9-S8-S7-S6-S5-S4-S3-S2-S1-B3-B2-B1-A1-GEN-SLR;
Loco
WDM 2/3 of Ratlam Shed. & WAp4ET
News    PNR    Forum    Time-Table    Availability    Fare Chart    Map    Arr/Dep History    Trips    Gallery    ΣChains    X/O    Timeline    
Travel Time: 4h 25m    7 halts    Distance: 245 km    Avg Speed: 55 km/hr
Type: Mail/Express
Zone: WCR/West Central
Departs @ 10:45 (Avg 27m late)
Platform# 2
 M WTFS
Itarsi Junction/ET 
Arrives @ 15:10 (Avg 24m late)
Platform# 3
 M WTFS
Jabalpur Junction/JBP 

7 halts. 25 intermediate Stations between Itarsi Junction and Jabalpur Junction

Show ALL intermediate Stations  Show Old Time-Table

#CodeStation NameX/OArrivesAvgDepartsAvgHaltPFDay#KmSpeedElevZoneAddress
1SMNHSomnath (2)  -09:30+111-1169.53012mWRSomnath, Gujarat
2VRLVeraval (5)X  09:40+109:50+210m11-1164.4608mWRVeraval, Gujarat
3MLHAMaliya Hatina (2)X  10:20+1610:22+152m--1-1134.36454mWRMalia, Gujarat
4KSDKeshod (2)  10:37+1910:39+192m11-1118.24446mWRKeshod, Gujarat
5JNDJunagadh Junction (5)  11:27+1911:29+192m--1-1082.75886mWRJunagadh, Gujarat
6JLRJetalsar Junction (5)  11:56+2112:04+218m--1-1056.839108mWRRajkot, Gujarat
7VRRVirpur (2)  12:34+1312:36+122m--1-1037.362121mWRRajkot, Gujarat
8GDLGondal (3)  12:52+1412:54+132m11-1020.743141mWRGondal, Gujarat
9BKNGBhakti Nagar (3)  13:43+013:45+112m11-985.428142mWRRajkot, Gujarat
10RJTRajkot Junction (5)  13:58+1014:03+125m11-979.370128mWRRajkot, Gujarat
11WKRWankaner Junction (4)X  14:39+2214:41+232m--1-937.55587mWRWankaner, Gujarat
12THANThan Junction (3)  15:10+2215:12+222m11-910.967138mWRThangadh, Gujarat
13SUNRSurendranagar Junction (4)X  15:55+2015:57+202m--1-863.25372mWRSurendra Nagar, Gujarat
14VGViramgam Junction (5)  17:11+1017:13+122m--1-797.85529mWRViramgam, Gujarat
15ADIAhmedabad Junction (12)X  18:25+1518:45+820m41-732.45651mWRAhmedabad, Gujarat
16MHDMahemdavad Kheda Road (4)  19:15+2419:17+242m21-704.47537mWRMahemdavad, Gujarat
17NDNadiad Junction (4)  19:31+2719:33+272m11-686.86237mWRNadiad, Gujarat
18ANNDAnand Junction (6)X  19:51+2919:53+292m11-668.35144mWRAnand, Gujarat
19BRCVadodara Junction (7)X20:35+2821:00+3225m41-632.6-36mWRVadodara 390005, Gujarat
20DRLDerolXO  21:20+1:2721:42+1:0822m11-582.23181mWRKalol, Gujarat
21GDAGodhra Junction (3)X  22:28+1922:30+202m21-558.780122mWRGodhra, Gujarat
22DHDDahod (3)  23:25+5723:27+572m--1-485.690313mWRDahod, Gujarat
23MGNMeghnagar (3)  23:49+1:0623:51+1:062m--1-452.546317mWRJhabua, Madhya Pradesh
24RTMRatlam Junction (7)X  01:35+3401:50+3715m52-372.175495mWRRatlam, Madhya Pradesh
25KUHKhachrod (2)  02:12+4902:14+502m--2-344.546497mWRUjjain, Madhya Pradesh
26NADNagda Junction (4)O  02:32+4302:35+463m--2-330.751468mWRNagda, Madhya Pradesh
27UJNUjjain Junction (8)  03:40+4203:50+5310m--2-275.176492mWRUjjain 456001, Madhya Pradesh
28TANTarana RoadO  04:15+1:0504:17+1:042m--2-243.621498mWRMaksi, Madhya Pradesh
29MKCMaksi Junction (3)X  04:45+5004:47+502m--2-234.081513mWRMakshi, Madhya Pradesh
30BCHBerchha (2)  05:01+5505:03+552m--2-215.266490mWRShajapur, Madhya Pradesh
31KSHKali Sindh (2)  05:14+5505:16+552m--2-203.072443mWRShajapur, Madhya Pradesh
32AKDAkodia (2)  05:31+5505:33+562m12-185.156460mWRDist. Shajapur, Madhya Pradesh
33SJPShujalpur (3)X  05:47+5605:49+552m--2-172.163453mWRShujalpur, Madhya Pradesh
34KPPKalapipal (2)  06:01+5506:03+552m12-159.570487mWRState Highway 41, Madhya Pradesh
35PRBParbati (2)  06:16+5606:18+562m--2-144.364472mWRSehore, Madhya Pradesh
36SEHSehore (2)X  06:31+5506:33+552m22-130.418500mWRMP 466001, Madhya Pradesh
37BIHBairagarh (2)08:08+508:10+82m22-102.031522mWRBhopal, Madhya Pradesh
38BPLBhopal Junction (6)X  08:30+2008:35+325m42-91.738497mWCRBhopal, Madhya Pradesh
39HBJBhopal HabibGanj (5)  08:45+3708:47+382m42-85.561496mWCRHabibGanj, Madhya Pradesh
40HBDHoshangabad (2)X  09:53+3909:55+382m--2-18.131308mWCRHoshangabad, Madhya Pradesh
41ET»Itarsi Junction (7)»X10:30+2610:45+2715m220.071329mWCRItarsi 461111, Madhya Pradesh
42SGPSohagpur (2)X11:27+5411:29+582m--249.576340mWCRSohagpur, Madhya Pradesh
43PPIPipariya (3)X  11:43+5711:45+592m1267.290338mWCRPiparia, Madhya Pradesh
44GARGadarwara (2)  12:18+1:1012:20+1:102m12116.658352mWCRNarsinghpur, Madhya Pradesh
45KYKareli (2)XO  12:49+1:0512:51+1:062m12144.632361mWCRKareli, Madhya Pradesh
46NUNarsinghpur (2)  13:22+5113:24+512m12160.955365mWCRNarsimhapur, Madhya Pradesh
47SRIDShridham (3)X  13:58+4414:00+442m22192.073373mWCRShridham, Madhya Pradesh
48MMLMadan Mahal (3)  14:41+4114:43+432m32241.78428mWCRJabalpur, Madhya Pradesh
49JBP•Jabalpur Junction (4)•  15:10+24-32245.2-416mWCRJabalpur, Madhya Pradesh
Scroll to Top
Scroll to Bottom